Time;durP1;ratioP1;P1;durP2;ratioP2;P2;SDS_P1;SDS_P2;PMS_P1;PMS_P2;Temp;Humidity;BMP_temperature;BMP_pressure;BME280_temperature;BME280_humidity;BME280_pressure;Samples;Min_cycle;Max_cycle;Signal;HPM_P1;HPM_P2
2022/03/03 00:01:43;;;;;;;59.95;33.35;;;2.80;99.90;;;;;;4877047;29;20049;-74
2022/03/03 00:04:09;;;;;;;57.85;31.80;;;2.80;99.90;;;;;;4880353;29;20394;-74
2022/03/03 00:06:35;;;;;;;55.67;32.10;;;2.80;99.90;;;;;;4864991;29;20040;-73
2022/03/03 00:09:02;;;;;;;;;;;2.80;99.90;;;;;;4879112;29;20036;-73
2022/03/03 00:11:30;;;;;;;58.07;31.87;;;2.70;99.90;;;;;;4877451;29;19926;-73
2022/03/03 00:13:56;;;;;;;56.63;30.17;;;2.80;99.90;;;;;;4863749;29;20055;-73
2022/03/03 00:16:22;;;;;;;47.67;26.60;;;2.60;99.90;;;;;;4877325;29;20084;-74
2022/03/03 00:18:51;;;;;;;55.00;30.97;;;2.60;99.90;;;;;;4861120;29;20145;-74
2022/03/03 00:21:17;;;;;;;52.58;29.90;;;2.50;99.90;;;;;;4877309;29;20052;-74
2022/03/03 00:23:43;;;;;;;58.53;32.47;;;2.50;99.90;;;;;;4878194;29;20398;-74
2022/03/03 00:26:08;;;;;;;63.40;33.08;;;2.50;99.90;;;;;;4861839;29;20064;-74
2022/03/03 00:28:34;;;;;;;64.93;34.42;;;2.50;99.90;;;;;;4875057;29;20059;-74
2022/03/03 00:31:04;;;;;;;55.67;31.60;;;2.50;99.90;;;;;;4858667;29;20060;-75
2022/03/03 00:33:29;;;;;;;57.58;32.85;;;2.50;99.90;;;;;;4875912;29;20152;-74
2022/03/03 00:35:55;;;;;;;60.58;32.33;;;2.50;99.90;;;;;;4874687;29;20104;-75
2022/03/03 00:38:21;;;;;;;62.67;33.15;;;2.40;99.90;;;;;;4874167;29;20071;-74
2022/03/03 00:40:46;;;;;;;58.50;33.17;;;2.30;99.90;;;;;;4877123;29;20402;-74
2022/03/03 00:43:12;;;;;;;60.00;32.83;;;2.40;99.90;;;;;;4876006;29;20057;-74
2022/03/03 00:45:38;;;;;;;55.28;31.48;;;2.40;99.90;;;;;;4874114;29;20416;-74
2022/03/03 00:48:06;;;;;;;57.67;30.42;;;2.30;99.90;;;;;;4872126;29;20056;-74
2022/03/03 00:50:32;;;;;;;58.20;32.10;;;2.30;99.90;;;;;;4876644;29;20052;-74
2022/03/03 00:52:58;;;;;;;58.67;32.67;;;2.20;99.90;;;;;;4859292;29;20156;-74
2022/03/03 00:55:24;;;;;;;50.47;28.45;;;2.20;99.90;;;;;;4873218;29;20053;-74
2022/03/03 00:57:50;;;;;;;53.30;30.23;;;2.20;99.90;;;;;;4860239;29;20048;-73
2022/03/03 01:00:15;;;;;;;45.88;25.85;;;2.10;99.90;;;;;;4857432;29;20109;-73
2022/03/03 01:02:41;;;;;;;47.53;28.10;;;2.10;99.90;;;;;;4872799;29;20045;-73
2022/03/03 01:05:08;;;;;;;49.63;27.00;;;2.00;99.90;;;;;;4882794;29;20216;-73
2022/03/03 01:07:34;;;;;;;42.20;24.63;;;1.90;99.90;;;;;;4881677;29;20120;-73
2022/03/03 01:10:00;;;;;;;42.88;22.65;;;1.80;99.90;;;;;;4874093;29;20064;-79
2022/03/03 01:12:25;;;;;;;46.85;25.70;;;1.80;99.90;;;;;;4873728;29;20524;-78
2022/03/03 01:14:51;;;;;;;37.08;21.23;;;1.70;99.90;;;;;;4875506;29;20044;-78
2022/03/03 01:17:17;;;;;;;32.20;17.90;;;1.70;99.90;;;;;;4877030;29;20154;-78
2022/03/03 01:19:43;;;;;;;38.90;22.33;;;1.60;99.90;;;;;;4877113;29;20132;-79
2022/03/03 01:22:09;;;;;;;33.60;19.42;;;1.60;99.90;;;;;;4876727;29;20037;-79
2022/03/03 01:24:40;;;;;;;30.92;17.02;;;1.60;99.90;;;;;;4882032;29;20116;-79
2022/03/03 01:27:06;;;;;;;27.27;15.88;;;1.50;99.90;;;;;;4876959;29;20049;-79
2022/03/03 01:29:32;;;;;;;26.75;14.98;;;1.40;99.90;;;;;;4875422;29;20047;-79
2022/03/03 01:31:58;;;;;;;26.40;15.10;;;1.30;99.90;;;;;;4864162;29;20567;-79
2022/03/03 01:34:24;;;;;;;24.27;15.07;;;1.30;99.90;;;;;;4860941;29;20053;-80
2022/03/03 01:36:50;;;;;;;;;;;1.30;99.90;;;;;;4846589;29;20358;-79
2022/03/03 01:39:15;;;;;;;32.88;18.52;;;1.20;99.90;;;;;;4873866;29;20471;-79
2022/03/03 01:41:41;;;;;;;34.72;20.35;;;1.20;99.90;;;;;;4858758;29;20049;-79
2022/03/03 01:44:08;;;;;;;40.72;22.02;;;1.20;99.90;;;;;;4873136;29;20041;-79
2022/03/03 01:46:34;;;;;;;;;;;1.20;99.90;;;;;;4876688;29;20185;-79
2022/03/03 01:49:00;;;;;;;38.80;21.33;;;1.20;99.90;;;;;;4879868;29;20022;-79
2022/03/03 01:51:26;;;;;;;44.45;24.00;;;1.20;99.90;;;;;;4874891;29;20061;-78
2022/03/03 01:53:52;;;;;;;40.47;22.23;;;1.20;99.90;;;;;;4873397;29;20050;-78
2022/03/03 01:56:18;;;;;;;27.00;15.35;;;1.20;99.90;;;;;;4873308;29;20052;-78
2022/03/03 01:58:44;;;;;;;39.13;21.73;;;1.00;99.90;;;;;;4875920;29;20520;-78
2022/03/03 02:01:10;;;;;;;;;;;1.10;99.90;;;;;;4859959;29;20044;-77
2022/03/03 02:03:36;;;;;;;36.63;21.05;;;1.00;99.90;;;;;;4874806;29;19934;-79
2022/03/03 02:06:02;;;;;;;33.75;19.58;;;1.00;99.90;;;;;;4881086;29;20051;-79
2022/03/03 02:08:28;;;;;;;41.03;21.88;;;1.00;99.90;;;;;;4876523;29;20037;-78
2022/03/03 02:10:54;;;;;;;38.27;20.33;;;1.00;99.90;;;;;;4875785;29;20044;-79
2022/03/03 02:13:20;;;;;;;;;;;1.00;99.90;;;;;;4875562;29;20041;-78
2022/03/03 02:15:55;;;;;;;30.40;17.05;;;1.00;99.90;;;;;;4860822;29;19942;-78
2022/03/03 02:18:21;;;;;;;27.73;16.17;;;0.90;99.90;;;;;;4873550;29;20041;-78
2022/03/03 02:20:48;;;;;;;26.48;14.70;;;0.80;99.90;;;;;;4874798;29;20044;-79
2022/03/03 02:23:14;;;;;;;25.42;14.38;;;0.70;99.90;;;;;;4875665;29;20037;-78
2022/03/03 02:25:40;;;;;;;27.33;15.30;;;0.70;99.90;;;;;;4859825;29;20524;-78
2022/03/03 02:28:08;;;;;;;21.67;11.82;;;0.60;99.90;;;;;;4845910;29;20041;-79
2022/03/03 02:30:34;;;;;;;18.42;11.40;;;0.50;99.90;;;;;;4857904;29;20143;-79
2022/03/03 02:33:00;;;;;;;16.75;9.88;;;0.50;99.90;;;;;;4874033;29;20544;-78
2022/03/03 02:35:27;;;;;;;35.17;19.60;;;0.40;99.90;;;;;;4874973;29;20156;-78
2022/03/03 02:37:55;;;;;;;42.22;22.42;;;0.30;99.90;;;;;;4876919;29;20480;-78
2022/03/03 02:40:21;;;;;;;33.85;19.30;;;0.30;99.90;;;;;;4872362;29;20050;-78
2022/03/03 02:42:52;;;;;;;29.25;17.35;;;0.30;99.90;;;;;;4875189;29;20128;-78
2022/03/03 02:45:18;;;;;;;27.27;16.10;;;0.30;99.90;;;;;;4875123;29;20040;-78
2022/03/03 02:47:48;;;;;;;25.67;14.63;;;0.20;99.90;;;;;;4876260;29;20048;-74
2022/03/03 02:50:16;;;;;;;23.77;14.20;;;0.20;99.90;;;;;;4860164;29;20081;-74
2022/03/03 02:52:42;;;;;;;27.15;14.65;;;0.20;99.90;;;;;;4872769;29;20076;-73
2022/03/03 02:55:08;;;;;;;32.08;18.15;;;0.20;99.90;;;;;;4875389;29;20505;-74
2022/03/03 03:00:19;;;;;;;29.95;16.75;;;0.10;99.90;;;;;;4871765;29;20071;-74
2022/03/03 03:02:45;;;;;;;29.35;16.00;;;0.10;99.90;;;;;;4855208;29;20051;-73
2022/03/03 03:05:11;;;;;;;26.87;15.10;;;0.10;99.90;;;;;;4859133;29;20041;-74
2022/03/03 03:07:37;;;;;;;30.75;16.35;;;0.10;99.90;;;;;;4870409;29;20049;-74
2022/03/03 03:10:04;;;;;;;35.95;20.50;;;0.10;99.90;;;;;;4861035;29;20053;-73
2022/03/03 03:12:30;;;;;;;37.03;21.15;;;0.10;99.90;;;;;;4877800;29;20478;-73
2022/03/03 03:14:56;;;;;;;36.33;19.02;;;0.10;99.90;;;;;;4871329;29;20064;-73
2022/03/03 03:17:22;;;;;;;54.75;31.30;;;0.20;99.90;;;;;;4880975;29;20102;-74
2022/03/03 03:19:48;;;;;;;57.72;30.17;;;0.10;99.90;;;;;;4873983;29;20052;-73
2022/03/03 03:22:14;;;;;;;52.15;29.20;;;0.20;99.90;;;;;;4872610;29;20041;-74
2022/03/03 03:24:39;;;;;;;51.17;28.05;;;0.40;99.90;;;;;;4874798;29;20052;-73
2022/03/03 03:27:05;;;;;;;49.30;28.02;;;0.30;99.90;;;;;;4877241;29;20495;-73
2022/03/03 03:29:34;;;;;;;47.10;26.02;;;0.40;99.90;;;;;;4874296;29;20060;-73
2022/03/03 03:32:01;;;;;;;46.55;26.58;;;0.40;99.90;;;;;;4871012;29;20062;-73
2022/03/03 03:34:27;;;;;;;54.75;28.13;;;0.40;99.90;;;;;;4873994;29;20065;-73
2022/03/03 03:36:56;;;;;;;56.90;31.30;;;0.50;99.90;;;;;;4871563;29;20101;-73
2022/03/03 03:39:22;;;;;;;50.25;28.27;;;0.50;99.90;;;;;;4855853;29;20325;-73
2022/03/03 03:41:47;;;;;;;49.77;27.17;;;0.50;99.90;;;;;;4870687;29;20067;-73
2022/03/03 03:44:13;;;;;;;54.83;30.50;;;0.50;99.90;;;;;;4870111;29;20045;-73
2022/03/03 03:46:39;;;;;;;56.60;30.73;;;0.60;99.90;;;;;;4877122;29;20053;-73
2022/03/03 03:49:05;;;;;;;52.38;29.80;;;0.60;99.90;;;;;;4858974;29;20454;-73
2022/03/03 03:51:31;;;;;;;52.97;28.13;;;0.60;99.90;;;;;;4858034;29;20056;-74
2022/03/03 03:53:57;;;;;;;49.30;27.55;;;0.60;99.90;;;;;;4855644;29;20042;-73
2022/03/03 03:56:23;;;;;;;47.70;27.50;;;0.60;99.90;;;;;;4846702;29;20100;-73
2022/03/03 03:58:50;;;;;;;45.03;26.23;;;0.70;99.90;;;;;;4858715;29;20079;-73
2022/03/03 04:01:16;;;;;;;45.85;25.58;;;0.60;99.90;;;;;;4858686;29;20533;-73
2022/03/03 04:03:42;;;;;;;44.72;25.65;;;0.60;99.90;;;;;;4874018;29;20116;-74
2022/03/03 04:06:09;;;;;;;45.42;26.45;;;0.60;99.90;;;;;;4868889;29;20041;-74
2022/03/03 04:08:35;;;;;;;46.83;26.67;;;0.70;99.90;;;;;;4874497;29;20107;-74
2022/03/03 04:11:02;;;;;;;43.88;26.05;;;0.70;99.90;;;;;;4873767;29;20068;-73
2022/03/03 04:13:27;;;;;;;51.53;28.23;;;0.70;99.90;;;;;;4857908;29;20113;-73
2022/03/03 04:15:53;;;;;;;48.63;27.70;;;0.70;99.90;;;;;;4842710;29;20048;-73
2022/03/03 04:18:19;;;;;;;43.45;25.80;;;0.80;99.90;;;;;;4858403;29;20128;-73
2022/03/03 04:20:45;;;;;;;42.90;24.92;;;0.80;99.90;;;;;;4877530;29;20063;-74
2022/03/03 04:23:11;;;;;;;42.70;25.27;;;0.80;99.90;;;;;;4875302;29;20501;-73
2022/03/03 04:25:37;;;;;;;40.35;24.83;;;0.80;99.90;;;;;;4873901;29;20308;-73
2022/03/03 04:28:03;;;;;;;37.53;22.15;;;0.80;99.90;;;;;;4874440;29;20037;-74
2022/03/03 04:30:30;;;;;;;41.38;23.92;;;0.80;99.90;;;;;;4875688;29;20080;-74
2022/03/03 04:32:57;;;;;;;42.85;25.30;;;0.80;99.90;;;;;;4876236;29;20096;-74
2022/03/03 04:35:23;;;;;;;44.72;26.17;;;0.80;99.90;;;;;;4877295;29;20080;-73
2022/03/03 04:37:48;;;;;;;46.97;26.55;;;0.80;99.90;;;;;;4877659;29;20549;-74
2022/03/03 04:40:14;;;;;;;44.47;25.73;;;0.80;99.90;;;;;;4866422;29;20120;-73
2022/03/03 04:42:40;;;;;;;39.28;23.65;;;0.70;99.90;;;;;;4877404;29;20087;-73
2022/03/03 04:45:06;;;;;;;40.07;22.27;;;0.80;99.90;;;;;;4863239;29;20421;-73
2022/03/03 04:47:31;;;;;;;39.83;23.02;;;0.70;99.90;;;;;;4874730;29;21093;-74
2022/03/03 04:49:57;;;;;;;40.33;24.30;;;0.70;99.90;;;;;;4875582;29;20052;-73
2022/03/03 04:52:23;;;;;;;41.40;23.35;;;0.70;99.90;;;;;;4865183;29;20364;-74
2022/03/03 04:54:49;;;;;;;35.20;21.30;;;0.70;99.90;;;;;;4861798;29;20149;-73
2022/03/03 04:57:15;;;;;;;41.45;23.08;;;0.60;99.90;;;;;;4864086;29;20485;-73
2022/03/03 04:59:41;;;;;;;40.50;24.27;;;0.70;99.90;;;;;;4862121;29;20053;-78
2022/03/03 05:02:07;;;;;;;38.95;22.95;;;0.70;99.90;;;;;;4873661;29;20041;-79
2022/03/03 05:04:33;;;;;;;38.97;23.10;;;0.70;99.90;;;;;;4860656;29;20497;-78
2022/03/03 05:06:59;;;;;;;38.45;21.02;;;0.70;99.90;;;;;;4880730;29;20301;-78
2022/03/03 05:09:25;;;;;;;36.97;22.33;;;0.60;99.90;;;;;;4876774;29;20037;-78
2022/03/03 05:11:50;;;;;;;40.77;23.77;;;0.60;99.90;;;;;;4862581;29;20396;-78
2022/03/03 05:14:16;;;;;;;37.63;23.27;;;0.60;99.90;;;;;;4859970;29;20301;-78
2022/03/03 05:16:41;;;;;;;28.08;16.75;;;0.60;99.90;;;;;;4858720;29;20060;-77
2022/03/03 05:19:07;;;;;;;33.27;20.13;;;0.60;99.90;;;;;;4874052;29;20065;-78
2022/03/03 05:21:33;;;;;;;39.63;21.95;;;0.50;99.90;;;;;;4876897;29;20293;-78
2022/03/03 05:23:59;;;;;;;37.17;19.83;;;0.50;99.90;;;;;;4861439;29;20489;-78
2022/03/03 05:26:25;;;;;;;37.58;21.90;;;0.50;99.90;;;;;;4861166;29;20313;-78
2022/03/03 05:28:51;;;;;;;34.50;20.55;;;0.50;99.90;;;;;;4878827;29;20042;-79
2022/03/03 05:31:17;;;;;;;38.22;22.13;;;0.50;99.90;;;;;;4878250;29;20095;-79
2022/03/03 05:33:43;;;;;;;35.27;20.97;;;0.50;99.90;;;;;;4854729;29;20061;-77
2022/03/03 05:36:10;;;;;;;32.47;19.65;;;0.50;99.90;;;;;;4862675;29;20314;-78
2022/03/03 05:38:37;;;;;;;32.03;18.55;;;0.40;99.90;;;;;;4874786;29;20076;-78
2022/03/03 05:41:05;;;;;;;37.05;23.10;;;0.30;99.90;;;;;;4875328;29;20446;-78
2022/03/03 05:43:31;;;;;;;36.50;20.50;;;0.30;99.90;;;;;;4870523;29;20145;-78
2022/03/03 05:45:57;;;;;;;33.35;19.05;;;0.20;99.90;;;;;;4880389;29;20045;-78
2022/03/03 05:48:25;;;;;;;;;;;0.20;99.90;;;;;;4879532;29;20036;-79
2022/03/03 05:50:52;;;;;;;29.85;17.35;;;0.20;99.90;;;;;;4883551;29;20059;-78
2022/03/03 05:53:18;;;;;;;30.55;17.30;;;0.10;99.90;;;;;;4861366;29;20041;-79
2022/03/03 05:55:59;;;;;;;24.92;15.55;;;0.10;99.90;;;;;;4859988;29;20048;-78
2022/03/03 05:58:44;;;;;;;31.63;18.70;;;0.00;99.90;;;;;;4857618;29;20052;-79
2022/03/03 06:01:12;;;;;;;34.45;20.65;;;0.00;99.90;;;;;;4868272;29;20049;-80
2022/03/03 06:03:39;;;;;;;29.35;17.65;;;0.00;99.90;;;;;;4883928;29;20049;-78
2022/03/03 06:06:18;;;;;;;28.25;16.63;;;-0.10;99.90;;;;;;4881050;29;20101;-78
2022/03/03 06:09:23;;;;;;;33.65;19.65;;;-0.20;99.90;;;;;;4857168;29;20048;-78
2022/03/03 06:11:55;;;;;;;36.53;20.60;;;-0.10;99.90;;;;;;4854298;29;20101;-78
2022/03/03 06:14:35;;;;;;;43.75;25.33;;;-0.10;99.90;;;;;;4877602;29;20063;-78
2022/03/03 06:17:02;;;;;;;41.85;22.63;;;-0.10;99.90;;;;;;4871056;29;20520;-78
2022/03/03 06:19:29;;;;;;;37.92;22.65;;;0.00;99.90;;;;;;4867255;29;20155;-78
2022/03/03 06:21:55;;;;;;;46.60;25.85;;;0.00;99.90;;;;;;4883598;29;20051;-80
2022/03/03 06:24:20;;;;;;;44.22;26.55;;;0.10;99.90;;;;;;4877096;29;20128;-79
2022/03/03 06:26:48;;;;;;;47.38;27.15;;;0.10;99.90;;;;;;4844555;29;20135;-80
2022/03/03 06:29:13;;;;;;;45.90;27.88;;;0.30;99.90;;;;;;4864528;29;20036;-80
2022/03/03 06:31:40;;;;;;;47.60;27.10;;;0.30;99.90;;;;;;4872183;29;20121;-79
2022/03/03 06:34:07;;;;;;;47.33;27.20;;;0.30;99.90;;;;;;4863237;29;20721;-79
2022/03/03 06:36:33;;;;;;;47.90;28.10;;;0.30;99.90;;;;;;4861997;29;20173;-79
2022/03/03 06:38:59;;;;;;;50.60;28.98;;;0.40;99.90;;;;;;4872197;29;20565;-79
2022/03/03 06:41:25;;;;;;;50.15;27.90;;;0.40;99.90;;;;;;4867583;29;20040;-79
2022/03/03 06:43:52;;;;;;;45.67;27.75;;;0.50;99.90;;;;;;4874865;29;20041;-79
2022/03/03 06:46:18;;;;;;;48.28;27.80;;;0.50;99.90;;;;;;4875730;29;20063;-79
2022/03/03 06:48:45;;;;;;;44.72;25.80;;;0.50;99.90;;;;;;4873110;29;20389;-80
2022/03/03 06:51:15;;;;;;;45.55;26.50;;;0.50;99.90;;;;;;4876020;29;20041;-80
2022/03/03 06:53:45;;;;;;;44.58;25.50;;;0.40;99.90;;;;;;4859752;29;20157;-80
2022/03/03 06:56:12;;;;;;;41.28;24.13;;;0.50;99.90;;;;;;4874022;29;20048;-79
2022/03/03 06:58:39;;;;;;;41.00;24.20;;;0.50;99.90;;;;;;4865523;29;20055;-80
2022/03/03 07:01:09;;;;;;;;;;;0.50;99.90;;;;;;4869494;29;20092;-79
2022/03/03 07:03:35;;;;;;;45.78;25.77;;;0.50;99.90;;;;;;4872779;29;19987;-79
2022/03/03 07:06:03;;;;;;;41.00;25.38;;;0.60;99.90;;;;;;4876798;29;20112;-80
2022/03/03 07:08:30;;;;;;;49.35;28.67;;;0.60;99.90;;;;;;4873307;29;20044;-80
2022/03/03 07:10:56;;;;;;;44.28;26.33;;;0.60;99.90;;;;;;4835275;29;20084;-78
2022/03/03 07:13:22;;;;;;;48.67;27.00;;;0.70;99.90;;;;;;4865886;29;20119;-79
2022/03/03 07:15:57;;;;;;;49.92;28.30;;;0.70;99.90;;;;;;4880256;29;20052;-80
2022/03/03 07:18:48;;;;;;;50.05;29.35;;;0.80;99.90;;;;;;4878725;29;20072;-78
2022/03/03 07:21:33;;;;;;;50.33;28.00;;;0.80;99.90;;;;;;4874647;29;20049;-77
2022/03/03 07:24:26;;;;;;;52.00;29.60;;;0.80;99.90;;;;;;4873825;29;20049;-81
2022/03/03 07:26:57;;;;;;;50.03;29.08;;;1.00;99.90;;;;;;4874044;29;20045;-80
2022/03/03 07:29:27;;;;;;;47.33;28.88;;;1.00;99.90;;;;;;4878512;29;20342;-79
2022/03/03 07:31:56;;;;;;;43.63;25.92;;;1.00;99.90;;;;;;4872582;29;20041;-80
2022/03/03 07:34:29;;;;;;;54.55;30.02;;;1.10;99.90;;;;;;4826926;29;20072;-80
2022/03/03 07:36:57;;;;;;;57.72;31.33;;;1.10;99.90;;;;;;4860456;29;20041;-80
2022/03/03 07:39:30;;;;;;;54.75;30.70;;;1.20;99.90;;;;;;4847180;29;20049;-81
2022/03/03 07:41:58;;;;;;;55.45;31.50;;;1.20;99.90;;;;;;4859173;29;20124;-80
2022/03/03 07:44:24;;;;;;;43.08;26.75;;;1.30;99.90;;;;;;4863338;29;20075;-80
2022/03/03 07:46:50;;;;;;;45.05;27.58;;;1.40;99.90;;;;;;4840531;29;20577;-80
2022/03/03 07:49:19;;;;;;;46.65;28.52;;;1.50;99.90;;;;;;4859736;29;20113;-80
2022/03/03 07:51:45;;;;;;;37.97;23.80;;;1.60;99.90;;;;;;4846376;29;20041;-80
2022/03/03 07:54:11;;;;;;;42.58;26.25;;;1.70;99.90;;;;;;4860584;29;20529;-80
2022/03/03 07:56:44;;;;;;;45.25;27.10;;;1.90;99.90;;;;;;4857032;29;20041;-80
2022/03/03 07:59:16;;;;;;;45.28;26.85;;;2.10;99.90;;;;;;4873802;29;20370;-80
2022/03/03 08:01:44;;;;;;;42.78;24.80;;;2.30;99.90;;;;;;4864193;29;20077;-80
2022/03/03 08:04:17;;;;;;;50.88;27.85;;;2.40;99.90;;;;;;4863955;29;20147;-80
2022/03/03 08:06:45;;;;;;;41.28;26.63;;;2.50;99.90;;;;;;4847546;29;20037;-80
2022/03/03 08:09:12;;;;;;;44.53;27.23;;;2.70;99.90;;;;;;4878503;29;20045;-80
2022/03/03 08:11:43;;;;;;;42.08;26.23;;;2.70;99.90;;;;;;4865025;29;20044;-80
2022/03/03 08:14:10;;;;;;;39.97;24.20;;;2.90;99.90;;;;;;4852241;29;20076;-81
2022/03/03 08:16:38;;;;;;;38.10;24.60;;;3.00;99.90;;;;;;4848723;29;20116;-81
2022/03/03 08:19:04;;;;;;;41.10;26.15;;;3.10;99.90;;;;;;4860532;29;20064;-81
2022/03/03 08:21:31;;;;;;;42.00;26.52;;;3.20;99.90;;;;;;4856250;29;20454;-81
2022/03/03 08:24:02;;;;;;;39.53;25.15;;;3.30;99.90;;;;;;4863802;29;20064;-80
2022/03/03 08:26:29;;;;;;;40.97;25.80;;;3.30;99.90;;;;;;4860303;29;20120;-81
2022/03/03 08:28:55;;;;;;;44.80;26.80;;;3.30;99.90;;;;;;4860276;29;20467;-80
2022/03/03 08:31:39;;;;;;;43.53;26.15;;;3.30;99.90;;;;;;4858808;29;20053;-79
2022/03/03 08:34:12;;;;;;;40.08;23.73;;;3.40;99.90;;;;;;4877124;29;20109;-79
2022/03/03 08:37:02;;;;;;;35.70;23.00;;;3.40;99.90;;;;;;4878922;29;20123;-80
2022/03/03 08:39:29;;;;;;;41.55;25.17;;;3.40;99.90;;;;;;4879705;29;20100;-80
2022/03/03 08:42:00;;;;;;;42.00;25.88;;;3.50;99.90;;;;;;4878033;29;20075;-80
2022/03/03 08:44:34;;;;;;;40.75;25.05;;;3.60;99.90;;;;;;4874880;29;20471;-80
2022/03/03 08:47:03;;;;;;;38.72;25.42;;;3.60;99.90;;;;;;4863649;29;20040;-79
2022/03/03 08:49:37;;;;;;;42.65;25.48;;;3.70;99.90;;;;;;4876655;29;20505;-80
2022/03/03 08:52:03;;;;;;;41.17;26.08;;;3.70;99.90;;;;;;4859176;29;20127;-80
2022/03/03 08:54:29;;;;;;;40.90;24.40;;;3.80;99.90;;;;;;4861234;29;20071;-80
2022/03/03 08:56:55;;;;;;;40.38;24.50;;;3.80;99.90;;;;;;4863604;29;20068;-76
2022/03/03 08:59:21;;;;;;;41.13;25.27;;;3.90;99.90;;;;;;4877592;29;20044;-76
2022/03/03 09:01:48;;;;;;;39.95;24.48;;;4.10;99.90;;;;;;4878934;29;20097;-76
2022/03/03 09:04:13;;;;;;;32.97;20.85;;;4.10;99.90;;;;;;4876587;29;20401;-76
2022/03/03 09:06:39;;;;;;;38.05;23.17;;;4.20;99.90;;;;;;4862504;29;20044;-77
2022/03/03 09:09:05;;;;;;;37.35;23.13;;;4.30;99.90;;;;;;4863648;29;20073;-76
2022/03/03 09:11:30;;;;;;;35.90;23.63;;;4.40;99.90;;;;;;4866561;29;20044;-76
2022/03/03 09:13:56;;;;;;;38.30;23.80;;;4.50;99.90;;;;;;4859523;29;20484;-76
2022/03/03 09:16:22;;;;;;;37.30;24.73;;;4.60;99.90;;;;;;4858973;29;20062;-76
2022/03/03 09:18:48;;;;;;;33.25;21.83;;;4.70;99.90;;;;;;4862857;29;20044;-76
2022/03/03 09:21:15;;;;;;;31.92;20.10;;;4.70;99.90;;;;;;4878959;29;20048;-73
2022/03/03 09:23:42;;;;;;;36.40;23.70;;;4.80;99.90;;;;;;4877014;29;20057;-75
2022/03/03 09:26:08;;;;;;;36.38;23.92;;;4.90;99.90;;;;;;4867402;29;20078;-73
2022/03/03 09:28:34;;;;;;;32.30;22.50;;;4.90;99.90;;;;;;4862622;29;20053;-74
2022/03/03 09:31:00;;;;;;;33.72;22.33;;;5.00;99.90;;;;;;4860825;29;20045;-74
2022/03/03 09:33:27;;;;;;;33.95;22.25;;;5.00;99.90;;;;;;4877933;29;20049;-74
2022/03/03 09:35:53;;;;;;;37.83;23.58;;;5.00;99.90;;;;;;4881685;29;20056;-74
2022/03/03 09:38:19;;;;;;;38.55;23.83;;;5.00;99.90;;;;;;4878712;29;20044;-75
2022/03/03 09:40:45;;;;;;;36.78;24.30;;;5.20;99.90;;;;;;4879959;29;20457;-74
2022/03/03 09:43:11;;;;;;;38.28;24.10;;;5.20;99.90;;;;;;4860661;29;20073;-74
2022/03/03 09:45:37;;;;;;;32.63;22.33;;;5.20;99.90;;;;;;4844362;29;20080;-74
2022/03/03 09:48:09;;;;;;;29.40;21.00;;;5.30;99.90;;;;;;4873982;29;20037;-73
2022/03/03 09:50:37;;;;;;;32.53;21.55;;;5.40;99.90;;;;;;4860843;29;20446;-75
2022/03/03 09:53:09;;;;;;;34.92;21.55;;;5.50;99.90;;;;;;4874625;29;20409;-75
2022/03/03 09:55:37;;;;;;;33.55;21.70;;;5.50;99.90;;;;;;4870955;29;20105;-75
2022/03/03 09:58:03;;;;;;;33.75;21.50;;;5.70;99.90;;;;;;4877583;29;20872;-75
2022/03/03 10:00:33;;;;;;;29.80;19.98;;;5.90;99.90;;;;;;4875981;29;20042;-74
2022/03/03 10:03:12;;;;;;;28.92;19.95;;;5.90;99.90;;;;;;4872064;29;20560;-75
2022/03/03 10:05:47;;;;;;;28.25;19.63;;;6.00;99.90;;;;;;4878941;29;20053;-75
2022/03/03 10:08:15;;;;;;;27.48;18.13;;;6.20;99.90;;;;;;4877914;29;20037;-75
2022/03/03 10:10:45;;;;;;;23.63;17.40;;;6.30;99.90;;;;;;4874589;29;20054;-74
2022/03/03 10:13:16;;;;;;;24.70;16.45;;;6.50;99.90;;;;;;4879083;29;20087;-74
2022/03/03 10:15:43;;;;;;;22.92;15.25;;;6.60;99.90;;;;;;4874991;29;20061;-74
2022/03/03 10:18:14;;;;;;;22.98;15.85;;;6.70;99.90;;;;;;4874899;29;20449;-75
2022/03/03 10:20:52;;;;;;;23.75;16.27;;;6.90;99.90;;;;;;4874359;29;20045;-75
2022/03/03 10:23:22;;;;;;;22.40;15.23;;;7.00;99.60;;;;;;4873373;29;20061;-74
2022/03/03 10:25:48;;;;;;;23.33;15.88;;;7.00;99.90;;;;;;4880707;29;20041;-75
2022/03/03 10:28:17;;;;;;;25.25;15.45;;;7.20;98.60;;;;;;4874790;29;20047;-75
2022/03/03 10:30:57;;;;;;;25.02;17.58;;;7.20;98.50;;;;;;4875966;29;20057;-75
2022/03/03 10:33:29;;;;;;;22.75;15.70;;;7.20;96.70;;;;;;4874532;29;20501;-76
2022/03/03 10:36:08;;;;;;;23.13;16.10;;;7.30;96.70;;;;;;4865316;29;20045;-75
2022/03/03 10:38:49;;;;;;;24.75;16.98;;;7.40;97.70;;;;;;4843189;29;20172;-75
2022/03/03 10:41:36;;;;;;;24.40;17.48;;;7.40;95.60;;;;;;4858929;29;20492;-75
2022/03/03 10:44:11;;;;;;;25.95;17.65;;;7.40;96.40;;;;;;4862186;29;20045;-75
2022/03/03 10:46:39;;;;;;;24.35;17.77;;;7.40;96.80;;;;;;4859541;29;20052;-75
2022/03/03 10:49:19;;;;;;;22.70;16.33;;;7.50;97.30;;;;;;4857879;29;20038;-76
2022/03/03 10:51:45;;;;;;;25.20;16.42;;;7.70;97.80;;;;;;4842671;29;20052;-76
2022/03/03 10:54:11;;;;;;;24.10;17.33;;;7.90;97.20;;;;;;4857453;29;20051;-75
2022/03/03 10:56:48;;;;;;;24.88;17.60;;;8.10;96.50;;;;;;4863091;29;20103;-76
2022/03/03 10:59:24;;;;;;;21.80;16.23;;;8.40;96.90;;;;;;4848795;29;20221;-76
2022/03/03 11:01:51;;;;;;;25.38;16.98;;;8.60;95.80;;;;;;4860154;29;20052;-75
2022/03/03 11:04:19;;;;;;;23.23;16.52;;;8.80;95.00;;;;;;4859987;29;20154;-75
2022/03/03 11:06:49;;;;;;;21.17;15.10;;;9.10;96.30;;;;;;4841994;29;20633;-75
2022/03/03 11:09:18;;;;;;;20.58;14.95;;;9.20;94.10;;;;;;4856218;29;20042;-74
2022/03/03 11:11:45;;;;;;;21.33;14.05;;;9.40;93.80;;;;;;4842380;29;20127;-75
2022/03/03 11:14:12;;;;;;;21.17;15.90;;;9.70;93.90;;;;;;4841366;29;20075;-75
2022/03/03 11:16:41;;;;;;;22.35;15.75;;;9.80;93.70;;;;;;4838274;29;20064;-75
2022/03/03 11:19:10;;;;;;;25.15;16.02;;;9.90;93.80;;;;;;4856777;29;20049;-75
2022/03/03 11:21:36;;;;;;;25.50;17.27;;;10.20;94.20;;;;;;4842880;29;20040;-75
2022/03/03 11:24:05;;;;;;;;;;;10.20;92.50;;;;;;4859542;29;20066;-75
2022/03/03 11:26:44;;;;;;;21.25;15.38;;;10.10;92.00;;;;;;4855912;29;19920;-75
2022/03/03 11:29:16;;;;;;;21.17;15.00;;;10.10;91.80;;;;;;4852462;29;20041;-75
2022/03/03 11:31:59;;;;;;;19.92;15.05;;;10.20;92.10;;;;;;4857034;29;20187;-75
2022/03/03 11:34:43;;;;;;;25.90;16.02;;;10.40;92.10;;;;;;4853797;29;20056;-76
2022/03/03 11:37:23;;;;;;;26.52;16.40;;;10.60;92.50;;;;;;4857995;29;20053;-76
2022/03/03 11:39:57;;;;;;;24.80;17.63;;;10.80;92.80;;;;;;4857829;29;20482;-76
2022/03/03 11:42:38;;;;;;;23.67;17.02;;;10.70;91.90;;;;;;4858179;29;20207;-76
2022/03/03 11:45:10;;;;;;;23.90;16.33;;;10.90;92.40;;;;;;4846382;29;20065;-76
2022/03/03 11:47:42;;;;;;;24.50;16.65;;;10.60;91.80;;;;;;4843753;29;20504;-76
2022/03/03 11:50:19;;;;;;;23.98;16.08;;;10.60;91.80;;;;;;4859040;29;20478;-74
2022/03/03 11:53:04;;;;;;;24.70;16.85;;;10.40;91.60;;;;;;4860797;29;20477;-75
2022/03/03 11:55:36;;;;;;;21.52;15.57;;;10.40;91.90;;;;;;4858624;29;20053;-75
2022/03/03 11:58:05;;;;;;;21.08;16.08;;;10.60;92.40;;;;;;4858035;29;20113;-75
2022/03/03 12:00:33;;;;;;;25.15;15.50;;;10.70;91.90;;;;;;4857063;29;20045;-76
2022/03/03 12:03:08;;;;;;;22.92;16.42;;;10.90;92.80;;;;;;4860954;29;20048;-76
2022/03/03 12:05:47;;;;;;;21.27;15.07;;;11.10;92.20;;;;;;4857156;29;20494;-75
2022/03/03 12:08:16;;;;;;;23.52;14.60;;;11.20;91.40;;;;;;4858070;29;20045;-75
2022/03/03 12:11:11;;;;;;;20.10;14.88;;;11.10;91.20;;;;;;4842874;29;20067;-75
2022/03/03 12:13:40;;;;;;;21.35;15.25;;;11.00;91.10;;;;;;4856213;29;20102;-75
2022/03/03 12:16:17;;;;;;;22.88;16.08;;;10.80;91.30;;;;;;4858554;29;20059;-76
2022/03/03 12:18:46;;;;;;;22.10;16.02;;;10.80;91.10;;;;;;4858125;29;20093;-75
2022/03/03 12:21:36;;;;;;;25.35;16.90;;;10.80;91.60;;;;;;4858156;29;20049;-75
2022/03/03 12:24:28;;;;;;;27.05;16.90;;;10.90;92.10;;;;;;4850935;29;20052;-76
2022/03/03 12:27:01;;;;;;;27.02;16.85;;;11.10;92.20;;;;;;4858580;29;20053;-75
2022/03/03 12:29:35;;;;;;;24.15;16.77;;;11.20;91.90;;;;;;4839205;29;20093;-75
2022/03/03 12:32:25;;;;;;;19.02;14.52;;;11.10;91.30;;;;;;4855728;29;20093;-75
2022/03/03 12:34:52;;;;;;;20.65;14.00;;;11.20;91.70;;;;;;4858253;29;20041;-75
2022/03/03 12:37:18;;;;;;;21.20;15.05;;;11.50;91.80;;;;;;4825559;29;20048;-76
2022/03/03 12:39:51;;;;;;;19.92;15.43;;;11.60;91.40;;;;;;4866973;29;20052;-76
2022/03/03 12:42:24;;;;;;;19.73;14.65;;;11.60;91.10;;;;;;4846477;29;20061;-76
2022/03/03 12:44:54;;;;;;;19.85;13.55;;;11.40;90.50;;;;;;4860255;29;20429;-75
2022/03/03 12:47:33;;;;;;;17.25;13.07;;;11.30;88.50;;;;;;4843499;29;20062;-75
2022/03/03 12:50:11;;;;;;;18.80;14.40;;;11.40;89.90;;;;;;4861660;29;20100;-75